No particular awareness of the weather is required.    There are no Weather-warnings

Kopaida air sports center. The private airport (CTAF) Kopaida (ZZZZ) located near Athens southwest of Castle village in Voiotia,
just one hour from leaving the National Road Athens - Lamia of Kifissia. The exact location of the airport is N 38 ° 27.41 'and E 023 ° 08.18'.



Kopaida NW more information Kopaida NW


Agios Dimitrios more information Agios Dimitrios


Kopaida live view NE

Athens SkydiveBecome a Skydiver

Spot fly AviationSpot Flight Academy



Nearby METAR Reports

   
LGTG - Tanagra
Updated: 23-04-2018 09:50
Clear  
Clear  
   Wind: Calm
Wind: Calm
Temperature: 20°C
Dew Point: 11°C
Humidity: 56%
Barometer: 1015 hPa
Visibility: More than 10 km
Cloud details: Clear ft
LGTG 230650Z 00000KT CAVOK 20/11 Q1015 BLU
LGBL - Anchialos
Updated: 23-04-2018 10:20
Clear  
Clear  
   Wind: Calm
Wind: Calm
Temperature: 21°C
Dew Point: 11°C
Humidity: 53%
Barometer: 1015 hPa
Visibility: More than 10 km
Cloud details: Clear ft
LGBL 230720Z 00000KT CAVOK 21/11 Q1015
LGKR - Corfu
Updated: 23-04-2018 10:20
Few Clouds  
Few Clouds  
   Wind: South 9.3 km/h
Wind: South 9.3 km/h
Temperature: 18°C
Dew Point: 15°C
Humidity: 83%
Barometer: 1016 hPa
Clouds: Few Clouds
Visibility: More than 10 km
Cloud details: Few Clouds 1400 ft
LGKR 230720Z 17005KT 9999 FEW014 18/15 Q1016 NOSIG
LGAV - Eleftherios Venizelos
Updated: 23-04-2018 10:20
Clear  
Clear  
   Wind: varies 5.6 km/h
Wind: varies 5.6 km/h
Temperature: 20°C
Dew Point: 9°C
Humidity: 49%
Barometer: 1015 hPa
Visibility: More than 10 km
Cloud details: Clear ft
LGAV 230720Z VRB03KT CAVOK 20/09 Q1015 NOSIG
LGMT - Mytilene
Updated: 23-04-2018 10:20
Clear  
Clear  
   Wind: varies 5.6 km/h
Wind: varies 5.6 km/h
Temperature: 19°C
Dew Point: 12°C
Humidity: 64%
Barometer: 1015 hPa
Visibility: More than 10 km
Cloud details: Clear ft
LGMT 230720Z VRB03KT CAVOK 19/12 Q1015
LGIR - Heraklion
Updated: 23-04-2018 10:20
Clear  
Clear  
   Wind: North 7.4 km/h
Wind: North 7.4 km/h
Temperature: 19°C
Dew Point: 8°C
Humidity: 49%
Barometer: 1015 hPa
Visibility: More than 10 km
Cloud details: Clear ft
LGIR 230720Z 36004KT CAVOK 19/08 Q1015 NOSIG
LGRP - Rhodes
Updated: 23-04-2018 10:20
Clear  
Clear  
   Wind: WNW 9.3 km/h
Wind: WNW 9.3 km/h
Temperature: 20°C
Dew Point: 13°C
Humidity: 64%
Barometer: 1014 hPa
Visibility: More than 10 km
Cloud details: Clear ft
LGRP 230720Z 29005KT CAVOK 20/13 Q1014 NOSIG
LGKV - Kavala
Updated: 23-04-2018 10:20
Clear  
Clear  
   Wind: Calm
Wind: Calm
Temperature: 20°C
Dew Point: 13°C
Humidity: 64%
Barometer: 1014 hPa
Visibility: More than 10 km
Cloud details: Clear ft
LGKV 230720Z 00000KT CAVOK 20/13 Q1014
LGMK - Mikonos
Updated: 23-04-2018 10:20
Clear  
Clear  
   Wind: varies 5.6 km/h
Wind: varies 5.6 km/h
Temperature: 19°C
Dew Point: 11°C
Humidity: 60%
Barometer: 1015 hPa
Visibility: More than 10 km
Cloud details: Clear ft
LGMK 230720Z VRB03KT CAVOK 19/11 Q1015

Script developed by  Saratoga-weather.org Adapted for the template by  Weerstation Leuven

You find our weather info also at:

UK Metoffice

European Weather Network

WeatherCloud

Weather Underground

AWEKAS

Citizen Weather Observer Program (CWOP)

HAMweather, WeatherForYou, PWS Weather

Equipment we use:

Weather-station
Wireless Vantage Pro2

Weather-program
Weather Display

Wireless Vantage Pro2

Weather Display


Never base important decisions on this or any weather information obtained from the Internet

Kopaida airport (ZZZZ) - CTAF frequency : 119.700 - Tanagra(LGTG) MATZ 120.250

Airport Phone +306977612200, +302268041170, Contact Mr. George Papadopoulos.